Early, TX

8:58 AM CDT on August 29, 2015 (GMT -0500)
Early | | Change Station
CLOSE
Current Station
Personal Weather Station
Location: Early, TX
Elevation: 1407 ft
Nearby Weather Stations

Elev 1407 ft 31.74 °N, 98.94 °W | Updated 4 minutes ago

Mostly Cloudy
Mostly Cloudy
77.0 °F
Feels Like 79 °F
N
2.2
Wind Variable Wind from South

Today
High -- | Low -- °F
--% Chance of Precip.
Yesterday
High -- | Low -- °F
Precip. -- in
7:09 AM 8:03 PM
Full, 100% visible
Pressure 30.08 in
Visibility 10.0 miles
Clouds Overcast 12000 ft
Heat Index 79 °F
Dew Point 58 °F
Humidity 52%
Rainfall 0.00 in
Snow Depth Not available.
UV 0 out of 12
Pollen 8.20 out of 12
Air Quality Not available.
Flu Activity Not available.
METAR KBWD 291335Z AUTO 20005KT 10SM OVC120 24/16 A3008 RMK AO2
Pressure 30.08 in
Visibility 10.0 miles
Clouds Overcast 12000 ft
Heat Index 79 °F
Dew Point 58 °F
Humidity 52%
Rainfall 0.00 in
Snow Depth Not available.
UV 0 out of 12
Pollen 8.20 out of 12
Air Quality Not available.
Flu Activity Not available.
METAR KBWD 291335Z AUTO 20005KT 10SM OVC120 24/16 A3008 RMK AO2

10-Day Weather Forecast

×

Almanac

Astronomy

Aug. 29, 2015 Rise Set
Actual Time
Civil Twilight
Nautical Twilight
Astronomical Twilight
Moon
Length of Visible Light
Length of Day
Tomorrow will be .
, % of the Moon is Illuminated

Today's Extremes

State Highs State Lows

Community

WunderPhotos

Upload Photos

1,850,686 photos uploaded!

WunderBlogs® & News

Nearby

Air Quality

  Air Quality AQ Index Pollutant
Not available.

Snow Depth

Station Depth Elevation

Earthquake Activity

City Distance Mag. Time & Date
Minimum magnitude displayed is 2.5.

Coastal Water Temperatures

Place Temperature

Stations

Nearby Weather Stations

Station Location Temp. Windchill Dew Point Humidity Wind Precip. Elev Updated Type